ES8594 / 9H-JAI 7700 Squawk Report (13th of December, 2018)

Time Lat Lon Altitude Heading Speed Vertical Rate
2018-12-13 23:20:13 GMT 10.598122 -67.005257 0 177 0
We lost coverage of the aircraft here for a total of 11 minutes
2018-12-13 23:09:05 GMT 10.598145 -67.005234 0 177 0
We lost coverage of the aircraft here for a total of 6 minutes
2018-12-13 23:03:06 GMT 10.598145 -67.005257 0 177 0
We lost coverage of the aircraft here for a total of 12 minutes
2018-12-13 22:51:17 GMT 10.598129 -67.005287 0 177 0
We lost coverage of the aircraft here for a total of 22 minutes
2018-12-13 22:29:32 GMT 10.598133 -67.005234 0 177 0
We lost coverage of the aircraft here for a total of 107 minutes
2018-12-13 20:42:16 GMT 10.598129 -67.005257 0 177 5
2018-12-13 20:42:01 GMT 10.598141 -67.005257 0 177 5
2018-12-13 20:41:44 GMT 10.598141 -67.005241 0 177 5
We lost coverage of the aircraft here for a total of 14 minutes
2018-12-13 20:27:22 GMT 10.599526 -67.147476 2,775 89 176 -1344
2018-12-13 20:25:30 GMT 10.658295 -67.173538 4,625 232 271 -384
2018-12-13 20:23:14 GMT 10.748260 -67.030479 6,850 260 284 -512
2018-12-13 20:23:03 GMT 10.752124 -67.009804 6,975 260 288 -704
2018-12-13 20:21:34 GMT 10.774292 -66.887039 8,675 260 321 -1792
2018-12-13 20:17:35 GMT 10.871704 -66.508392 15,050 254 369 -1728
2018-12-13 20:16:56 GMT 10.890289 -66.443748 16,125 254 375 -1792
2018-12-13 20:16:44 GMT 10.895970 -66.423676 16,450 255 377 -1792
2018-12-13 20:16:34 GMT 10.901276 -66.404922 16,775 255 378 -1920
2018-12-13 20:16:23 GMT 10.906357 -66.387070 17,100 254 380 -1792
2018-12-13 20:15:52 GMT 10.921108 -66.333717 17,825 256 390 -1024
2018-12-13 20:15:45 GMT 10.924367 -66.320946 17,950 256 391 -1024
2018-12-13 20:15:32 GMT 10.930233 -66.298012 18,175 254 394 -960
2018-12-13 20:15:16 GMT 10.943081 -66.269821 18,450 236 396 -1088
2018-12-13 20:14:30 GMT 11.001022 -66.209106 19,200 225 400 -1088
2018-12-13 20:14:19 GMT 11.016215 -66.193977 19,375 225 403 -1024
2018-12-13 20:14:05 GMT 11.035355 -66.174919 19,625 225 410 -1024
2018-12-13 20:13:53 GMT 11.051147 -66.159149 19,800 225 413 -1024
2018-12-13 20:13:40 GMT 11.069321 -66.141106 20,025 225 416 -1024
2018-12-13 20:13:32 GMT 11.080084 -66.130371 20,150 225 417 -1024
2018-12-13 20:13:21 GMT 11.095679 -66.114906 20,325 225 420 -1088
2018-12-13 20:13:10 GMT 11.110428 -66.100189 20,500 225 422 -1024
2018-12-13 20:12:59 GMT 11.126357 -66.084305 20,700 225 422 -1088
2018-12-13 20:12:49 GMT 11.140323 -66.070381 20,875 225 421 -1024
2018-12-13 20:12:34 GMT 11.160992 -66.049706 21,125 225 423 -1088
2018-12-13 20:12:00 GMT 11.209671 -66.001122 22,025 225 435 -2304
2018-12-13 20:11:47 GMT 11.228073 -65.982605 22,475 225 437 -2304
2018-12-13 20:11:35 GMT 11.246017 -65.964615 22,925 225 439 -2368
2018-12-13 20:11:25 GMT 11.259979 -65.950546 23,275 225 441 -2368
2018-12-13 20:11:14 GMT 11.275726 -65.934685 23,675 225 443 -2368
2018-12-13 20:11:03 GMT 11.292409 -65.917824 24,100 225 446 -2368
2018-12-13 20:10:53 GMT 11.307449 -65.902718 24,475 225 448 -2368
2018-12-13 20:10:42 GMT 11.323925 -65.886551 24,875 224 449 -2368
2018-12-13 20:10:31 GMT 11.339905 -65.870895 25,275 225 451 -2368
2018-12-13 20:10:16 GMT 11.361511 -65.848022 25,825 228 456 -2432
2018-12-13 20:09:46 GMT 11.401703 -65.797546 27,000 235 462 -2560
2018-12-13 20:09:35 GMT 11.415307 -65.777893 27,425 235 465 -2432
2018-12-13 20:09:23 GMT 11.429993 -65.756721 27,900 235 468 -2496
2018-12-13 20:09:11 GMT 11.446060 -65.733620 28,425 235 470 -2560
2018-12-13 20:08:57 GMT 11.462976 -65.709229 28,975 235 473 -2560
2018-12-13 20:08:42 GMT 11.482761 -65.680702 29,600 235 476 -2624
2018-12-13 20:08:29 GMT 11.498337 -65.658226 30,100 235 478 -2624
2018-12-13 20:08:13 GMT 11.519852 -65.627113 30,775 235 482 -2560
2018-12-13 20:07:59 GMT 11.537430 -65.601784 31,350 235 486 -2688
2018-12-13 20:07:45 GMT 11.556152 -65.574791 32,075 235 485 -3776
2018-12-13 20:07:32 GMT 11.573026 -65.550507 32,850 235 485 -3712
2018-12-13 20:07:20 GMT 11.588242 -65.528519 33,550 235 483 -3648
2018-12-13 20:07:09 GMT 11.602661 -65.507683 34,200 235 481 -3904
2018-12-13 20:06:50 GMT 11.626701 -65.473022 35,175 235 477 -2496
2018-12-13 20:06:36 GMT 11.643997 -65.448021 35,650 235 475 -1792
2018-12-13 20:06:25 GMT 11.658417 -65.427185 35,925 235 473 -960
2018-12-13 20:06:22 GMT 11.662445 -65.421356 35,975 235 473 -1024
2018-12-13 20:06:12 GMT 11.674789 -65.403488 36,125 235 471 -1088
2018-12-13 20:05:54 GMT 11.696640 -65.371918 36,425 235 468 -1024
2018-12-13 20:05:43 GMT 11.710355 -65.352074 36,600 235 466 -1088
2018-12-13 20:05:31 GMT 11.725205 -65.330536 36,825 235 463 -1088
2018-12-13 20:05:18 GMT 11.741226 -65.307426 37,025 235 460 -1024
2018-12-13 20:05:12 GMT 11.748550 -65.296768 37,125 235 458 -1024
2018-12-13 20:05:07 GMT 11.755371 -65.286873 37,225 235 458 -1088
2018-12-13 20:04:57 GMT 11.767288 -65.269630 37,400 236 455 -1024
2018-12-13 20:04:43 GMT 11.783936 -65.245483 37,625 235 453 -1024
2018-12-13 20:04:33 GMT 11.795732 -65.228386 37,775 236 451 -1024
2018-12-13 20:04:30 GMT 11.799362 -65.223129 37,825 236 451 -1024
2018-12-13 20:04:18 GMT 11.813828 -65.202248 37,975 236 451 -64
2018-12-13 20:04:14 GMT 11.818634 -65.195236 38,000 236 451 64
2018-12-13 20:04:03 GMT 11.831635 -65.176437 38,000 235 452 0
2018-12-13 20:03:52 GMT 11.845596 -65.156174 38,000 236 451 -64
2018-12-13 20:03:38 GMT 11.862208 -65.132111 38,000 236 452 0
2018-12-13 20:03:24 GMT 11.879060 -65.107628 38,000 235 453 0
2018-12-13 20:03:21 GMT 11.882924 -65.102043 38,000 235 453 0
2018-12-13 20:02:59 GMT 11.909971 -65.062820 38,000 236 453 64
2018-12-13 20:02:37 GMT 11.936552 -65.024269 38,000 235 454 0
2018-12-13 20:02:27 GMT 11.947678 -65.008125 38,000 235 454 0
2018-12-13 20:02:15 GMT 11.963180 -64.985672 38,000 236 455 0
2018-12-13 20:02:06 GMT 11.973841 -64.970207 38,000 236 455 64
2018-12-13 20:01:46 GMT 11.997582 -64.935753 38,000 236 455 0
2018-12-13 20:01:04 GMT 12.048930 -64.861206 38,000 236 455 0
2018-12-13 20:00:57 GMT 12.057358 -64.848885 38,000 236 455 0
2018-12-13 20:00:51 GMT 12.064636 -64.838371 38,000 236 455 0
2018-12-13 19:59:50 GMT 12.137425 -64.732506 38,000 236 455 0
2018-12-13 19:59:45 GMT 12.144687 -64.721954 38,000 236 455 0
2018-12-13 19:59:36 GMT 12.155348 -64.706436 38,000 236 456 -64
2018-12-13 19:59:21 GMT 12.173736 -64.679649 38,000 236 456 0
2018-12-13 19:59:15 GMT 12.180067 -64.670486 38,000 236 456 64
2018-12-13 19:59:04 GMT 12.193405 -64.651085 38,000 236 456 0
2018-12-13 19:58:36 GMT 12.227371 -64.601601 38,000 236 457 0
2018-12-13 19:58:32 GMT 12.232019 -64.594887 38,000 236 457 0
2018-12-13 19:58:21 GMT 12.245407 -64.575409 38,000 235 458 0
2018-12-13 19:58:11 GMT 12.258321 -64.556679 38,000 235 458 0
2018-12-13 19:58:00 GMT 12.271271 -64.537903 38,000 235 458 0
2018-12-13 19:57:39 GMT 12.297821 -64.499741 38,000 235 459 0
2018-12-13 19:57:29 GMT 12.310367 -64.481697 38,000 235 459 0
2018-12-13 19:57:07 GMT 12.337051 -64.443008 38,000 236 459 0
2018-12-13 19:56:45 GMT 12.362961 -64.403419 38,000 237 457 0
2018-12-13 19:56:35 GMT 12.374222 -64.386040 38,000 237 458 0
2018-12-13 19:56:21 GMT 12.390564 -64.360802 38,000 237 457 0
2018-12-13 19:56:12 GMT 12.400632 -64.345238 38,000 237 457 0
2018-12-13 19:56:03 GMT 12.411575 -64.328316 38,000 237 457 0
2018-12-13 19:55:48 GMT 12.428879 -64.301559 38,000 237 458 0
2018-12-13 19:55:41 GMT 12.436798 -64.289291 38,000 237 458 0
2018-12-13 19:55:31 GMT 12.449232 -64.270065 38,000 237 459 0
2018-12-13 19:55:18 GMT 12.463943 -64.247246 38,000 237 459 0
2018-12-13 19:55:08 GMT 12.476372 -64.228004 38,000 237 459 0
2018-12-13 19:54:18 GMT 12.534393 -64.138184 38,000 237 461 0
2018-12-13 19:53:47 GMT 12.571292 -64.080986 38,000 237 462 0
2018-12-13 19:53:44 GMT 12.576233 -64.073357 38,000 237 462 0
2018-12-13 19:53:10 GMT 12.615563 -64.012367 38,000 237 462 0
2018-12-13 19:53:01 GMT 12.625479 -63.997047 38,000 237 462 0
2018-12-13 19:52:41 GMT 12.649704 -63.959419 38,000 237 461 0
2018-12-13 19:52:31 GMT 12.661423 -63.941189 38,000 237 461 0
2018-12-13 19:52:21 GMT 12.673141 -63.922955 38,000 237 461 64
2018-12-13 19:52:10 GMT 12.687241 -63.901077 38,000 237 461 -64
2018-12-13 19:52:05 GMT 12.690994 -63.895252 38,000 237 460 0
2018-12-13 19:51:59 GMT 12.698456 -63.883602 38,000 238 459 0
2018-12-13 19:51:35 GMT 12.726218 -63.840157 38,000 238 459 0
2018-12-13 19:51:19 GMT 12.744280 -63.811630 38,000 238 460 0
2018-12-13 19:51:13 GMT 12.751923 -63.799595 38,000 238 460 0
2018-12-13 19:51:03 GMT 12.763786 -63.780933 38,000 237 460 0
2018-12-13 19:50:52 GMT 12.776688 -63.761902 38,000 233 463 0
2018-12-13 19:48:01 GMT 13.028202 -63.482426 38,000 227 470 0
2018-12-13 19:47:41 GMT 13.057111 -63.451488 38,000 227 471 0
2018-12-13 19:47:37 GMT 13.064026 -63.444057 38,000 227 471 0
2018-12-13 19:47:13 GMT 13.099893 -63.405712 38,000 227 469 0
2018-12-13 19:47:08 GMT 13.107714 -63.397327 38,000 227 469 64
2018-12-13 19:46:51 GMT 13.133286 -63.369946 38,000 227 469 0
2018-12-13 19:46:47 GMT 13.139602 -63.363213 38,000 227 469 0
2018-12-13 19:46:35 GMT 13.156454 -63.345192 38,000 227 469 0
2018-12-13 19:46:25 GMT 13.172379 -63.328133 38,000 227 469 0
2018-12-13 19:46:14 GMT 13.187988 -63.311417 38,000 227 468 0
2018-12-13 19:46:03 GMT 13.205101 -63.293056 38,000 227 468 0
2018-12-13 19:45:50 GMT 13.224280 -63.272480 38,000 227 468 0
2018-12-13 19:45:29 GMT 13.256332 -63.238110 38,000 227 468 0
2018-12-13 19:45:15 GMT 13.277024 -63.215958 38,000 227 468 0
2018-12-13 19:45:07 GMT 13.288055 -63.204063 38,000 227 467 0
2018-12-13 19:44:57 GMT 13.304214 -63.186729 38,000 227 467 0
2018-12-13 19:44:46 GMT 13.320690 -63.169075 38,000 227 467 0
2018-12-13 19:44:36 GMT 13.335633 -63.153027 38,000 227 466 0
2018-12-13 19:44:25 GMT 13.351456 -63.136013 38,000 227 466 0
2018-12-13 19:44:13 GMT 13.369400 -63.116787 38,000 227 466 0
2018-12-13 19:44:04 GMT 13.383087 -63.102058 38,000 227 466 64
2018-12-13 19:43:53 GMT 13.398898 -63.085037 38,000 227 466 0
2018-12-13 19:43:42 GMT 13.415314 -63.067444 38,000 227 466 0
2018-12-13 19:43:31 GMT 13.431427 -63.050110 38,000 227 466 0
2018-12-13 19:43:21 GMT 13.446350 -63.034058 38,000 227 466 0
2018-12-13 19:43:11 GMT 13.462463 -63.016727 38,000 227 466 0
2018-12-13 19:42:59 GMT 13.479480 -62.998447 38,000 227 466 0
2018-12-13 19:42:50 GMT 13.494095 -62.982723 38,000 227 467 0
2018-12-13 19:42:36 GMT 13.514115 -62.961201 38,000 227 466 0
2018-12-13 19:42:28 GMT 13.526637 -62.947708 38,000 227 466 0
2018-12-13 19:42:12 GMT 13.549913 -62.922653 38,000 227 467 0
2018-12-13 19:42:06 GMT 13.558851 -62.913013 38,000 227 467 0
2018-12-13 19:41:56 GMT 13.574353 -62.896294 38,000 227 467 0
2018-12-13 19:41:45 GMT 13.590179 -62.879253 38,000 227 467 0
2018-12-13 19:41:37 GMT 13.604507 -62.863815 38,000 227 467 0
2018-12-13 19:40:52 GMT 13.670105 -62.793068 38,000 227 466 0
2018-12-13 19:40:41 GMT 13.685892 -62.776073 38,000 227 466 0
2018-12-13 19:40:29 GMT 13.703163 -62.757423 38,000 227 466 0
2018-12-13 19:40:07 GMT 13.736448 -62.721523 38,000 227 465 0
2018-12-13 19:37:33 GMT 13.965020 -62.474480 38,000 227 464 0
2018-12-13 19:37:24 GMT 13.980103 -62.458130 38,000 227 464 0
2018-12-13 19:37:11 GMT 13.996396 -62.440506 38,000 227 464 0
2018-12-13 19:37:03 GMT 14.008220 -62.427689 38,000 227 464 0
2018-12-13 19:36:57 GMT 14.017112 -62.418098 38,000 227 464 0
2018-12-13 19:36:51 GMT 14.027167 -62.407211 38,000 227 464 0
2018-12-13 19:36:47 GMT 14.033079 -62.400753 38,000 227 464 0
2018-12-13 19:36:36 GMT 14.048767 -62.383781 38,000 227 464 0
2018-12-13 19:36:29 GMT 14.059148 -62.372566 38,000 227 464 0
2018-12-13 19:36:20 GMT 14.073074 -62.357452 38,000 227 464 64
2018-12-13 19:36:11 GMT 14.085217 -62.344280 38,000 227 464 0
2018-12-13 19:36:01 GMT 14.100021 -62.328236 38,000 227 465 0
2018-12-13 19:35:51 GMT 14.115738 -62.311234 38,000 227 464 0
2018-12-13 19:35:42 GMT 14.129070 -62.296768 38,000 227 464 0
2018-12-13 19:35:39 GMT 14.133213 -62.292240 38,000 227 465 0
2018-12-13 19:35:36 GMT 14.137665 -62.287460 38,000 227 465 0
2018-12-13 19:34:28 GMT 14.239014 -62.177502 38,000 227 464 0
2018-12-13 19:34:23 GMT 14.247894 -62.167843 38,000 227 464 0
2018-12-13 19:33:57 GMT 14.285997 -62.126434 38,000 227 463 0
2018-12-13 19:33:46 GMT 14.300446 -62.110733 38,000 227 463 0
2018-12-13 19:33:38 GMT 14.313446 -62.096622 38,000 227 462 0
2018-12-13 19:33:30 GMT 14.324020 -62.085114 38,000 227 461 0
2018-12-13 19:33:21 GMT 14.339951 -62.067829 38,000 227 462 0
2018-12-13 19:33:15 GMT 14.346701 -62.060467 38,000 227 461 0
2018-12-13 19:33:03 GMT 14.364391 -62.041241 38,000 227 462 0
2018-12-13 19:32:59 GMT 14.369980 -62.035152 38,000 227 461 -64
2018-12-13 19:32:53 GMT 14.378497 -62.025867 38,000 227 461 0
2018-12-13 19:32:49 GMT 14.385573 -62.018162 38,000 227 462 64
2018-12-13 19:32:42 GMT 14.395294 -62.007595 38,000 227 462 0
2018-12-13 19:32:38 GMT 14.400009 -62.002480 38,000 227 462 0
2018-12-13 19:31:56 GMT 14.461853 -61.935188 38,000 227 462 0
2018-12-13 19:31:06 GMT 14.535797 -61.854668 38,000 227 463 0
2018-12-13 19:31:01 GMT 14.544342 -61.845356 38,000 227 463 0
2018-12-13 19:30:53 GMT 14.554367 -61.834415 38,000 227 463 0
2018-12-13 19:30:42 GMT 14.571735 -61.815491 38,000 227 462 0
2018-12-13 19:30:21 GMT 14.603302 -61.781094 38,000 227 463 0
2018-12-13 19:30:11 GMT 14.619498 -61.763401 38,000 227 463 0
2018-12-13 19:30:01 GMT 14.632782 -61.748940 38,000 227 464 64
2018-12-13 19:29:13 GMT 14.702408 -61.672935 38,000 227 464 0
2018-12-13 19:29:10 GMT 14.706528 -61.668438 38,000 227 464 0
2018-12-13 19:29:00 GMT 14.721587 -61.651997 38,000 227 464 0
2018-12-13 19:28:52 GMT 14.735458 -61.636852 38,000 227 464 0
2018-12-13 19:28:49 GMT 14.737507 -61.634602 38,000 227 464 64
2018-12-13 19:28:37 GMT 14.758177 -61.612003 38,000 227 464 0
2018-12-13 19:28:28 GMT 14.769104 -61.600105 38,000 227 464 0
2018-12-13 19:28:18 GMT 14.783844 -61.583958 38,000 227 464 0
2018-12-13 19:28:07 GMT 14.800369 -61.565914 38,000 227 464 0
2018-12-13 19:27:38 GMT 14.844345 -61.517845 38,000 227 464 -64
2018-12-13 19:27:35 GMT 14.846970 -61.514957 38,000 227 464 -64
2018-12-13 19:27:24 GMT 14.863495 -61.496887 38,000 227 463 0
2018-12-13 19:27:20 GMT 14.871140 -61.488503 38,000 227 462 0
2018-12-13 19:27:14 GMT 14.878189 -61.480793 38,000 227 462 64
2018-12-13 19:26:59 GMT 14.899602 -61.457321 38,000 227 461 64
2018-12-13 19:26:51 GMT 14.911652 -61.444172 38,000 227 461 0
2018-12-13 19:26:42 GMT 14.925705 -61.428802 38,000 227 459 0
2018-12-13 19:26:32 GMT 14.940262 -61.412804 38,000 227 458 0
2018-12-13 19:26:21 GMT 14.955698 -61.395920 38,000 227 457 0
2018-12-13 19:26:13 GMT 14.966731 -61.383804 38,000 227 457 0
2018-12-13 19:26:09 GMT 14.975189 -61.374592 38,000 227 457 0
2018-12-13 19:25:57 GMT 14.990891 -61.357391 38,000 227 457 0
2018-12-13 19:25:47 GMT 15.006300 -61.340446 38,000 227 459 0
2018-12-13 19:25:36 GMT 15.020266 -61.325146 38,000 227 459 0
2018-12-13 19:25:29 GMT 15.031631 -61.312672 38,000 227 459 0
2018-12-13 19:25:25 GMT 15.037164 -61.306606 38,000 227 459 0
2018-12-13 19:25:17 GMT 15.048802 -61.293804 38,000 227 459 0
2018-12-13 19:25:07 GMT 15.063932 -61.277176 38,000 227 459 0
2018-12-13 19:24:55 GMT 15.080566 -61.258900 38,000 227 459 0
2018-12-13 19:24:44 GMT 15.096863 -61.240974 38,000 227 459 64
2018-12-13 19:24:33 GMT 15.112015 -61.224300 38,000 227 459 0
2018-12-13 19:24:23 GMT 15.127213 -61.207630 38,000 227 459 0
2018-12-13 19:24:12 GMT 15.144979 -61.188061 38,000 227 459 0
2018-12-13 19:24:01 GMT 15.158991 -61.172611 38,000 227 460 0
2018-12-13 19:23:52 GMT 15.174773 -61.155296 38,000 227 460 0
2018-12-13 19:23:40 GMT 15.190247 -61.138241 38,000 227 461 64
2018-12-13 19:23:31 GMT 15.204849 -61.122196 38,000 227 461 0
2018-12-13 19:23:20 GMT 15.220047 -61.105427 38,000 227 461 64
2018-12-13 19:23:08 GMT 15.238503 -61.085159 38,000 227 461 0
2018-12-13 19:22:42 GMT 15.275070 -61.044907 38,000 227 461 0
2018-12-13 19:22:37 GMT 15.282120 -61.037197 38,000 227 461 0
2018-12-13 19:22:26 GMT 15.298183 -61.019489 38,000 227 461 0
2018-12-13 19:22:16 GMT 15.313359 -61.002716 38,000 227 461 0
2018-12-13 19:22:05 GMT 15.329453 -60.985012 38,000 227 461 0
2018-12-13 19:21:55 GMT 15.344055 -60.968918 38,000 227 461 0
2018-12-13 19:21:45 GMT 15.359802 -60.951523 38,000 227 461 0
2018-12-13 19:21:33 GMT 15.375273 -60.934444 38,000 227 461 0
2018-12-13 19:21:23 GMT 15.390747 -60.917358 38,000 228 460 0
2018-12-13 19:21:12 GMT 15.406494 -60.899963 38,000 227 459 0
2018-12-13 19:21:00 GMT 15.423687 -60.880981 38,000 228 460 0
2018-12-13 19:20:51 GMT 15.436489 -60.866810 38,000 228 460 0
2018-12-13 19:20:40 GMT 15.453388 -60.848122 38,000 228 460 0
2018-12-13 19:20:26 GMT 15.473465 -60.825901 38,000 227 459 0
2018-12-13 19:20:19 GMT 15.483088 -60.815262 38,000 227 459 0
2018-12-13 19:20:07 GMT 15.501984 -60.794388 38,000 228 459 0
2018-12-13 19:19:58 GMT 15.514755 -60.780224 38,000 228 459 0
2018-12-13 19:19:47 GMT 15.530457 -60.762829 38,000 228 459 0
2018-12-13 19:19:37 GMT 15.544677 -60.747086 38,000 228 459 0
2018-12-13 19:19:01 GMT 15.596649 -60.689487 38,000 228 459 0
2018-12-13 19:18:54 GMT 15.607132 -60.677876 38,000 228 459 64
2018-12-13 19:18:44 GMT 15.622238 -60.661106 38,000 228 460 0
2018-12-13 19:18:33 GMT 15.637390 -60.644341 38,000 228 460 0
2018-12-13 19:18:22 GMT 15.653091 -60.626846 38,000 228 461 0
2018-12-13 19:18:12 GMT 15.668289 -60.610031 38,000 228 462 0
2018-12-13 19:18:01 GMT 15.683728 -60.592838 38,000 228 462 0
2018-12-13 19:17:50 GMT 15.700424 -60.574326 38,000 228 462 0
2018-12-13 19:17:40 GMT 15.714732 -60.558407 38,000 228 462 0
2018-12-13 19:17:29 GMT 15.730513 -60.540848 38,000 228 462 0
2018-12-13 19:17:14 GMT 15.753021 -60.515827 38,000 228 462 0
2018-12-13 19:17:08 GMT 15.761517 -60.506416 38,000 228 462 0
2018-12-13 19:16:58 GMT 15.776962 -60.489182 38,000 228 462 0
2018-12-13 19:16:46 GMT 15.793304 -60.471016 38,000 228 461 0
2018-12-13 19:16:36 GMT 15.807861 -60.454823 38,000 228 460 0
2018-12-13 19:16:26 GMT 15.823245 -60.437656 38,000 228 460 0
2018-12-13 19:16:14 GMT 15.840097 -60.418919 38,000 228 459 0
2018-12-13 19:16:04 GMT 15.854874 -60.402496 38,000 228 458 64
2018-12-13 19:15:53 GMT 15.870216 -60.385372 38,000 228 458 0
2018-12-13 19:15:43 GMT 15.884694 -60.369286 38,000 228 458 0
2018-12-13 19:15:32 GMT 15.900604 -60.351562 38,000 228 458 0
2018-12-13 19:15:22 GMT 15.915931 -60.334461 38,000 228 458 0
2018-12-13 19:14:49 GMT 15.963089 -60.281887 38,000 228 459 0
We lost coverage of the aircraft here for a total of 365 minutes
2018-12-13 13:10:01 GMT 37.547684 -13.882300 33,000 239 466 0
2018-12-13 13:09:39 GMT 37.572685 -13.830414 33,000 239 465 0
2018-12-13 13:08:34 GMT 37.646622 -13.676401 33,000 239 469 0
2018-12-13 13:08:22 GMT 37.658058 -13.652483 33,000 239 469 0
2018-12-13 13:08:13 GMT 37.669052 -13.629533 33,000 239 469 64
2018-12-13 13:08:03 GMT 37.681595 -13.603353 33,000 239 469 0
2018-12-13 13:07:51 GMT 37.692764 -13.579920 33,000 240 468 0
2018-12-13 13:07:41 GMT 37.703728 -13.557009 33,000 240 468 0
2018-12-13 13:07:31 GMT 37.716431 -13.530364 33,000 239 467 0
2018-12-13 13:07:20 GMT 37.728680 -13.504645 33,000 239 467 0
2018-12-13 13:07:11 GMT 37.738678 -13.483614 33,000 240 467 0
2018-12-13 13:07:02 GMT 37.749165 -13.461655 33,000 240 467 0
2018-12-13 13:06:47 GMT 37.765778 -13.426637 33,000 240 467 0
2018-12-13 13:06:41 GMT 37.771545 -13.414482 33,000 240 465 64
2018-12-13 13:06:30 GMT 37.782867 -13.390662 33,000 240 465 0
2018-12-13 13:06:20 GMT 37.793701 -13.367790 33,000 240 465 0
2018-12-13 13:06:09 GMT 37.805862 -13.342179 33,000 240 465 0
2018-12-13 13:06:00 GMT 37.816898 -13.318893 33,000 240 464 0
2018-12-13 13:05:49 GMT 37.827713 -13.296028 33,000 240 464 0
2018-12-13 13:05:40 GMT 37.839157 -13.271835 33,000 240 464 0
2018-12-13 13:05:30 GMT 37.850414 -13.248079 33,000 240 465 0
2018-12-13 13:05:18 GMT 37.862503 -13.222397 33,000 240 465 0
2018-12-13 13:05:08 GMT 37.873737 -13.198581 33,000 240 465 0
2018-12-13 13:04:59 GMT 37.884109 -13.176640 33,000 240 466 64
2018-12-13 13:04:47 GMT 37.896732 -13.149918 33,000 240 466 0
2018-12-13 13:04:37 GMT 37.908188 -13.125557 33,000 240 467 0
2018-12-13 13:04:27 GMT 37.919685 -13.101137 33,000 240 467 0
2018-12-13 13:04:16 GMT 37.930573 -13.078055 33,000 240 468 0
2018-12-13 13:04:04 GMT 37.944077 -13.049369 33,000 240 468 0
2018-12-13 13:03:56 GMT 37.953140 -13.030019 33,000 240 468 0
2018-12-13 13:03:45 GMT 37.966656 -13.001304 33,000 240 469 64
2018-12-13 13:03:35 GMT 37.977688 -12.977720 33,000 240 468 0
2018-12-13 13:03:25 GMT 37.988300 -12.955090 33,000 240 468 0
2018-12-13 13:03:15 GMT 38.000015 -12.930090 33,000 240 468 0
2018-12-13 13:03:00 GMT 38.014744 -12.898546 33,000 240 468 0
2018-12-13 13:02:54 GMT 38.024010 -12.878783 33,000 240 467 0
2018-12-13 13:02:41 GMT 38.035412 -12.854302 33,000 240 467 0
2018-12-13 13:02:31 GMT 38.047283 -12.828867 33,000 240 467 0
2018-12-13 13:02:22 GMT 38.056499 -12.809103 33,000 240 466 64
2018-12-13 13:02:10 GMT 38.069256 -12.781817 33,000 240 468 -64
2018-12-13 13:02:02 GMT 38.078938 -12.761038 33,000 240 467 0
2018-12-13 13:01:56 GMT 38.085083 -12.747843 33,000 240 467 0
2018-12-13 13:01:51 GMT 38.090809 -12.735602 33,000 240 467 192
2018-12-13 13:01:45 GMT 38.096695 -12.722869 33,000 240 467 -64
2018-12-13 13:01:39 GMT 38.103054 -12.709152 33,000 240 468 0
2018-12-13 13:01:31 GMT 38.113815 -12.686053 33,000 240 467 0
2018-12-13 13:01:26 GMT 38.118210 -12.676586 33,000 240 467 64
2018-12-13 13:01:20 GMT 38.124802 -12.662386 33,000 240 467 64
2018-12-13 13:01:09 GMT 38.137115 -12.635972 33,000 240 468 0
2018-12-13 13:01:00 GMT 38.147835 -12.612782 33,000 240 467 0
2018-12-13 13:00:50 GMT 38.157669 -12.591559 33,000 240 467 64
2018-12-13 13:00:43 GMT 38.164921 -12.575942 33,000 240 467 0
2018-12-13 13:00:39 GMT 38.169716 -12.565553 33,000 240 467 0
2018-12-13 13:00:32 GMT 38.176746 -12.550387 33,000 240 467 0
2018-12-13 13:00:28 GMT 38.182842 -12.537192 33,000 240 467 64
2018-12-13 13:00:19 GMT 38.193100 -12.514947 33,000 240 467 64
2018-12-13 13:00:07 GMT 38.204678 -12.489962 33,000 240 465 0
2018-12-13 12:59:56 GMT 38.215988 -12.465422 33,000 240 466 0
2018-12-13 12:59:46 GMT 38.227718 -12.439987 33,000 240 465 0
2018-12-13 12:59:37 GMT 38.238327 -12.416888 33,000 240 464 0
2018-12-13 12:59:29 GMT 38.245502 -12.401355 33,000 240 464 0
2018-12-13 12:59:26 GMT 38.249832 -12.391921 33,000 240 464 128
2018-12-13 12:59:20 GMT 38.255466 -12.379681 33,000 240 463 0
2018-12-13 12:59:16 GMT 38.260437 -12.368852 33,000 240 464 0
2018-12-13 12:59:09 GMT 38.267570 -12.353290 33,000 240 464 0
2018-12-13 12:59:05 GMT 38.272781 -12.342005 33,000 240 464 -64
2018-12-13 12:58:56 GMT 38.282913 -12.319881 33,000 240 463 64
2018-12-13 12:58:45 GMT 38.294754 -12.294059 33,000 240 462 192
2018-12-13 12:58:35 GMT 38.305092 -12.271490 33,000 240 462 64
2018-12-13 12:58:24 GMT 38.316971 -12.245665 33,000 240 463 64
2018-12-13 12:58:12 GMT 38.328644 -12.220245 33,000 240 463 0
2018-12-13 12:58:04 GMT 38.336838 -12.202363 33,000 240 463 64
2018-12-13 12:58:00 GMT 38.341774 -12.191540 33,000 240 463 0
2018-12-13 12:57:53 GMT 38.350159 -12.173144 33,000 240 463 0
2018-12-13 12:57:42 GMT 38.361137 -12.149088 33,000 240 463 0
2018-12-13 12:57:32 GMT 38.372498 -12.124173 33,000 240 462 0
2018-12-13 12:57:24 GMT 38.380234 -12.107284 33,000 240 461 0
2018-12-13 12:57:21 GMT 38.384079 -12.098811 33,000 240 461 0
2018-12-13 12:57:13 GMT 38.393463 -12.078124 33,000 240 461 0
2018-12-13 12:57:01 GMT 38.404850 -12.053256 33,000 240 462 0
2018-12-13 12:56:52 GMT 38.413883 -12.033447 33,000 241 463 0
2018-12-13 12:56:41 GMT 38.426926 -12.004653 33,000 241 463 192
2018-12-13 12:56:31 GMT 38.437637 -11.981068 32,950 241 462 640
2018-12-13 12:56:20 GMT 38.449173 -11.955633 32,800 240 461 1152
2018-12-13 12:56:10 GMT 38.459839 -11.932048 32,600 241 462 1280
2018-12-13 12:56:00 GMT 38.469467 -11.910828 32,400 241 464 1344
2018-12-13 12:55:49 GMT 38.482780 -11.881470 32,175 241 465 1280
2018-12-13 12:55:38 GMT 38.493759 -11.857293 32,000 241 465 64
2018-12-13 12:55:30 GMT 38.503868 -11.834900 32,000 241 465 -192
2018-12-13 12:55:18 GMT 38.514816 -11.810661 32,000 241 465 0
2018-12-13 12:55:09 GMT 38.524864 -11.788269 32,000 241 466 64
2018-12-13 12:54:58 GMT 38.536037 -11.763428 32,000 241 466 0
2018-12-13 12:54:48 GMT 38.547455 -11.738175 32,000 241 467 64
2018-12-13 12:54:37 GMT 38.559906 -11.710411 32,000 241 467 64
2018-12-13 12:54:28 GMT 38.569180 -11.689880 32,000 241 467 0
2018-12-13 12:54:15 GMT 38.582497 -11.660217 32,000 241 467 0
2018-12-13 12:54:07 GMT 38.591721 -11.639597 32,000 241 467 0
2018-12-13 12:54:03 GMT 38.595345 -11.631470 32,000 241 467 0
2018-12-13 12:53:57 GMT 38.602432 -11.615713 32,000 241 467 64
2018-12-13 12:53:54 GMT 38.605259 -11.609497 32,000 241 467 0
2018-12-13 12:53:47 GMT 38.613190 -11.591770 32,000 241 467 64
2018-12-13 12:53:42 GMT 38.617905 -11.581202 32,000 241 467 64
2018-12-13 12:53:36 GMT 38.624996 -11.565369 32,000 241 467 64
2018-12-13 12:53:33 GMT 38.628021 -11.558716 32,000 241 467 0
2018-12-13 12:53:26 GMT 38.635750 -11.541443 32,000 241 468 0
2018-12-13 12:53:23 GMT 38.638962 -11.534212 32,000 241 468 0
2018-12-13 12:53:14 GMT 38.648643 -11.512634 32,000 241 468 0
2018-12-13 12:53:04 GMT 38.659351 -11.488647 32,000 241 468 64
2018-12-13 12:53:01 GMT 38.661915 -11.482910 32,000 241 468 0
2018-12-13 12:52:55 GMT 38.668804 -11.467529 32,000 241 468 0
2018-12-13 12:52:51 GMT 38.683746 -11.433960 32,000 241 466 0
2018-12-13 12:52:42 GMT 38.683746 -11.433960 32,000 241 467 0
2018-12-13 12:52:32 GMT 38.693802 -11.411451 32,000 241 465 0
2018-12-13 12:52:23 GMT 38.702316 -11.392285 32,000 241 465 0
2018-12-13 12:52:13 GMT 38.713631 -11.366943 32,000 241 465 64
2018-12-13 12:52:03 GMT 38.724472 -11.342548 32,000 241 465 64
2018-12-13 12:52:00 GMT 38.727448 -11.335861 32,000 241 464 128
2018-12-13 12:51:52 GMT 38.735458 -11.317709 32,000 241 464 0
2018-12-13 12:51:43 GMT 38.747520 -11.290466 32,000 241 464 0
2018-12-13 12:51:31 GMT 38.758511 -11.265686 32,000 241 463 0
2018-12-13 12:51:25 GMT 38.764004 -11.253296 32,000 241 463 0
2018-12-13 12:51:19 GMT 38.771393 -11.236685 32,000 241 462 0
2018-12-13 12:51:08 GMT 38.782333 -11.211966 32,000 241 461 0
2018-12-13 12:51:01 GMT 38.789474 -11.195785 32,000 241 463 64
2018-12-13 12:50:58 GMT 38.793686 -11.186291 32,000 241 462 0
2018-12-13 12:50:50 GMT 38.801056 -11.169617 32,000 241 461 0
2018-12-13 12:50:47 GMT 38.804409 -11.161987 32,000 241 462 64
2018-12-13 12:50:41 GMT 38.812180 -11.144376 32,000 241 463 64
2018-12-13 12:50:32 GMT 38.821472 -11.123418 32,000 241 462 0
2018-12-13 12:50:29 GMT 38.823578 -11.118642 32,000 241 462 64
2018-12-13 12:50:26 GMT 38.826710 -11.111511 32,000 241 462 0
2018-12-13 12:50:19 GMT 38.833649 -11.095773 32,000 241 463 0
2018-12-13 12:50:14 GMT 38.843979 -11.072388 32,000 241 464 128
2018-12-13 12:50:10 GMT 38.843979 -11.072388 32,000 241 463 0
2018-12-13 12:50:05 GMT 38.848587 -11.061829 32,000 241 463 0
2018-12-13 12:49:59 GMT 38.854919 -11.047485 32,000 241 463 0
2018-12-13 12:49:54 GMT 38.860153 -11.035528 32,000 241 463 0
2018-12-13 12:49:49 GMT 38.865646 -11.023108 32,000 241 464 128
2018-12-13 12:49:44 GMT 38.870468 -11.012085 32,000 241 464 128
2018-12-13 12:49:38 GMT 38.876797 -10.997742 32,000 241 464 64
2018-12-13 12:49:35 GMT 38.879974 -10.990508 32,000 241 464 -128
2018-12-13 12:49:32 GMT 38.884804 -10.979492 32,000 241 464 -128
2018-12-13 12:49:28 GMT 38.887985 -10.972297 32,000 241 465 64
2018-12-13 12:49:22 GMT 38.894302 -10.957907 32,000 241 464 64
2018-12-13 12:49:16 GMT 38.900620 -10.943517 32,000 241 464 64
2018-12-13 12:49:12 GMT 38.904007 -10.935875 32,000 241 464 64
2018-12-13 12:49:07 GMT 38.912430 -10.916649 32,000 241 465 64
2018-12-13 12:49:02 GMT 38.915157 -10.910400 32,000 241 465 0
2018-12-13 12:48:56 GMT 38.922134 -10.894556 32,000 241 465 0
2018-12-13 12:48:52 GMT 38.924839 -10.888306 32,000 241 465 0
2018-12-13 12:48:49 GMT 38.929688 -10.877241 32,000 241 465 0
2018-12-13 12:48:46 GMT 38.932011 -10.871948 32,000 241 465 0
2018-12-13 12:48:43 GMT 38.934311 -10.866673 32,000 241 465 64
2018-12-13 12:48:40 GMT 38.938110 -10.858015 32,000 241 466 0
2018-12-13 12:48:34 GMT 38.945709 -10.840700 32,000 241 465 0
2018-12-13 12:48:31 GMT 38.947815 -10.835863 32,000 241 465 0
2018-12-13 12:48:24 GMT 38.958546 -10.811340 32,000 241 466 0
2018-12-13 12:48:19 GMT 38.960861 -10.806009 32,000 241 465 64
2018-12-13 12:48:16 GMT 38.964249 -10.798307 32,000 241 465 64
2018-12-13 12:48:09 GMT 38.971161 -10.782410 32,000 241 465 0
2018-12-13 12:48:04 GMT 38.976234 -10.770874 32,000 241 465 64
2018-12-13 12:48:01 GMT 38.978748 -10.765076 32,000 241 465 64
2018-12-13 12:47:58 GMT 38.982330 -10.756929 32,000 241 466 64
2018-12-13 12:47:55 GMT 38.985718 -10.749167 32,000 241 466 0
2018-12-13 12:47:51 GMT 38.989059 -10.741464 32,000 241 466 0
2018-12-13 12:47:44 GMT 38.997894 -10.721223 32,000 241 466 0
2018-12-13 12:47:38 GMT 39.004398 -10.706299 32,000 241 465 0
2018-12-13 12:47:34 GMT 39.009659 -10.694235 32,000 241 465 0
2018-12-13 12:47:31 GMT 39.011101 -10.690857 32,000 241 464 64
2018-12-13 12:47:27 GMT 39.015106 -10.681696 32,000 241 463 64
2018-12-13 12:47:23 GMT 39.019062 -10.672607 32,000 241 463 64
2018-12-13 12:47:18 GMT 39.024090 -10.661072 32,000 241 463 0
2018-12-13 12:47:13 GMT 39.030167 -10.647125 32,000 241 464 64
2018-12-13 12:47:05 GMT 39.037495 -10.630249 32,000 241 464 64
2018-12-13 12:46:59 GMT 39.044621 -10.613831 32,000 242 464 0
2018-12-13 12:46:52 GMT 39.051086 -10.598941 32,000 241 464 0
2018-12-13 12:46:48 GMT 39.055664 -10.588313 32,000 241 463 0
2018-12-13 12:46:45 GMT 39.059189 -10.580139 32,000 241 463 0
2018-12-13 12:46:33 GMT 39.082886 -10.525452 32,000 241 461 64
2018-12-13 12:46:22 GMT 39.082886 -10.525452 32,000 241 461 -64
2018-12-13 12:46:11 GMT 39.093685 -10.500488 32,000 242 462 0
2018-12-13 12:46:07 GMT 39.098202 -10.489868 32,000 242 462 0
2018-12-13 12:46:02 GMT 39.104233 -10.475942 32,000 241 461 128
2018-12-13 12:45:55 GMT 39.110046 -10.462507 32,000 241 461 -192
2018-12-13 12:45:51 GMT 39.114819 -10.451477 31,975 241 462 128
2018-12-13 12:45:45 GMT 39.121010 -10.437073 32,000 241 463 192
2018-12-13 12:45:41 GMT 39.125202 -10.427429 32,000 241 463 192
2018-12-13 12:45:34 GMT 39.132278 -10.411072 31,950 241 466 1088
2018-12-13 12:45:31 GMT 39.137100 -10.399993 31,925 241 466 704
2018-12-13 12:45:24 GMT 39.142960 -10.386439 31,850 241 466 1216
2018-12-13 12:45:19 GMT 39.148865 -10.372885 31,000 241 472 896
2018-12-13 12:45:13 GMT 39.153946 -10.361182 31,600 241 469 1728
2018-12-13 12:45:09 GMT 39.158810 -10.349976 31,475 241 470 1600
2018-12-13 12:45:03 GMT 39.164722 -10.336304 31,325 241 471 1536
2018-12-13 12:44:59 GMT 39.170013 -10.324044 31,225 241 472 1280
2018-12-13 12:44:53 GMT 39.175964 -10.310311 31,100 241 472 1088
2018-12-13 12:44:49 GMT 39.180222 -10.300519 31,000 241 472 896
2018-12-13 12:44:41 GMT 39.188690 -10.280875 30,925 241 471 832
2018-12-13 12:44:37 GMT 39.192490 -10.272097 30,625 241 468 1088
2018-12-13 12:44:32 GMT 39.197727 -10.259888 30,825 241 469 896
2018-12-13 12:44:28 GMT 39.202805 -10.248169 30,625 241 468 1088
2018-12-13 12:44:19 GMT 39.212265 -10.226301 30,550 241 467 1152
2018-12-13 12:44:16 GMT 39.214828 -10.220450 30,550 241 467 1152
2018-12-13 12:44:11 GMT 39.220276 -10.207792 30,425 241 467 1280
2018-12-13 12:44:06 GMT 39.225521 -10.195618 30,350 241 468 1344
2018-12-13 12:44:01 GMT 39.230804 -10.183431 30,225 241 467 1280
2018-12-13 12:43:58 GMT 39.233948 -10.176147 30,025 241 467 1024
2018-12-13 12:43:55 GMT 39.237076 -10.168862 30,100 241 467 1216
2018-12-13 12:43:48 GMT 39.245041 -10.150352 29,975 242 466 832
2018-12-13 12:43:45 GMT 39.247147 -10.145456 29,950 242 466 832
2018-12-13 12:43:40 GMT 39.252594 -10.132858 29,875 242 466 768
2018-12-13 12:43:37 GMT 39.256348 -10.124140 29,825 242 465 832
2018-12-13 12:43:34 GMT 39.258820 -10.118289 29,750 242 465 832
2018-12-13 12:43:29 GMT 39.264019 -10.106201 29,725 242 463 832
2018-12-13 12:43:26 GMT 39.267742 -10.097534 29,700 242 463 832
2018-12-13 12:43:23 GMT 39.269623 -10.093152 29,675 242 462 832
2018-12-13 12:43:19 GMT 39.274353 -10.082092 29,600 242 461 832
2018-12-13 12:43:16 GMT 39.276821 -10.076294 29,475 242 458 960
2018-12-13 12:43:12 GMT 39.281982 -10.064312 29,500 242 460 896
2018-12-13 12:43:08 GMT 39.285278 -10.056610 29,400 242 460 896
2018-12-13 12:43:01 GMT 39.296932 -10.029358 29,275 242 457 832
2018-12-13 12:42:55 GMT 39.299606 -10.023114 29,175 242 456 768
2018-12-13 12:42:50 GMT 39.304287 -10.012146 29,225 242 456 768
2018-12-13 12:42:45 GMT 39.310181 -9.998395 29,125 242 455 832
2018-12-13 12:42:42 GMT 39.313431 -9.990752 29,075 242 454 256
2018-12-13 12:42:37 GMT 39.317505 -9.981318 29,025 242 454 448
2018-12-13 12:42:34 GMT 39.320114 -9.975159 29,000 242 453 64
2018-12-13 12:42:30 GMT 39.324371 -9.965197 29,000 242 453 64
2018-12-13 12:42:25 GMT 39.329636 -9.952897 29,000 242 453 0
2018-12-13 12:42:21 GMT 39.334488 -9.941492 29,000 242 452 64
2018-12-13 12:42:15 GMT 39.340736 -9.926880 29,000 242 452 128
2018-12-13 12:42:10 GMT 39.344971 -9.916893 29,000 242 452 -64
2018-12-13 12:42:03 GMT 39.352051 -9.900391 29,000 242 451 0
2018-12-13 12:41:58 GMT 39.356472 -9.890015 29,000 242 451 64
2018-12-13 12:41:54 GMT 39.369141 -9.860229 29,000 242 451 0
2018-12-13 12:41:46 GMT 39.369141 -9.860229 29,000 242 451 128
2018-12-13 12:41:43 GMT 39.371521 -9.854557 29,000 242 451 64
2018-12-13 12:41:38 GMT 39.376953 -9.841858 29,000 242 450 64
2018-12-13 12:41:33 GMT 39.381798 -9.830505 29,000 242 450 0
2018-12-13 12:41:28 GMT 39.387589 -9.816881 29,000 242 450 0
2018-12-13 12:41:25 GMT 39.390594 -9.809814 29,000 242 450 0
2018-12-13 12:41:22 GMT 39.392441 -9.805537 29,000 242 451 64
2018-12-13 12:41:19 GMT 39.396229 -9.796570 29,000 242 451 0
2018-12-13 12:41:16 GMT 39.398438 -9.791386 29,000 242 451 64
2018-12-13 12:41:13 GMT 39.402653 -9.781494 29,000 242 451 64
2018-12-13 12:41:06 GMT 39.409077 -9.766357 29,000 242 452 0
2018-12-13 12:41:02 GMT 39.413315 -9.756397 29,000 242 452 0
2018-12-13 12:40:59 GMT 39.416519 -9.748874 29,000 242 452 0
2018-12-13 12:40:55 GMT 39.420135 -9.740335 29,000 242 452 0
2018-12-13 12:40:52 GMT 39.423386 -9.732752 29,000 242 452 64
2018-12-13 12:40:47 GMT 39.428024 -9.721863 29,000 242 453 64
2018-12-13 12:40:44 GMT 39.431030 -9.714720 29,000 242 453 128
2018-12-13 12:40:41 GMT 39.435059 -9.705227 29,000 242 453 64
2018-12-13 12:40:34 GMT 39.440918 -9.691467 29,000 242 454 64
2018-12-13 12:40:31 GMT 39.444351 -9.683373 29,000 242 454 -64
2018-12-13 12:40:27 GMT 39.448380 -9.673880 29,000 242 454 64
2018-12-13 12:40:21 GMT 39.454422 -9.659610 29,000 242 454 64
2018-12-13 12:40:17 GMT 39.459072 -9.648621 29,000 242 454 0
2018-12-13 12:40:13 GMT 39.462067 -9.641458 29,000 242 454 64
2018-12-13 12:40:10 GMT 39.464706 -9.635254 29,000 242 454 64
2018-12-13 12:40:05 GMT 39.470535 -9.621456 29,000 242 454 64
2018-12-13 12:39:59 GMT 39.480022 -9.599060 29,000 242 454 64
2018-12-13 12:39:50 GMT 39.485657 -9.585693 29,000 242 454 0
2018-12-13 12:39:44 GMT 39.491287 -9.572388 29,000 242 454 64
2018-12-13 12:39:40 GMT 39.496128 -9.560913 29,000 242 454 0
2018-12-13 12:39:31 GMT 39.504555 -9.540894 29,000 242 454 64
2018-12-13 12:39:28 GMT 39.507568 -9.533744 29,000 242 454 0
2018-12-13 12:39:24 GMT 39.511597 -9.524251 29,000 242 454 64
2018-12-13 12:39:19 GMT 39.516815 -9.511832 29,000 242 454 0
2018-12-13 12:39:13 GMT 39.522858 -9.497502 29,000 242 454 0
2018-12-13 12:39:08 GMT 39.528488 -9.484187 29,000 242 454 0
2018-12-13 12:39:04 GMT 39.532719 -9.474182 29,000 242 455 0
2018-12-13 12:38:58 GMT 39.538513 -9.460303 29,000 242 455 0
2018-12-13 12:38:53 GMT 39.542953 -9.449795 29,000 242 455 64
2018-12-13 12:38:50 GMT 39.546360 -9.441650 29,000 242 456 0
2018-12-13 12:38:46 GMT 39.549820 -9.433494 29,000 242 456 0
2018-12-13 12:38:42 GMT 39.553619 -9.424377 29,000 242 455 0
2018-12-13 12:38:38 GMT 39.558655 -9.412417 29,000 242 456 64
2018-12-13 12:38:29 GMT 39.566936 -9.392822 29,000 242 456 64
2018-12-13 12:38:21 GMT 39.574615 -9.374573 29,000 242 456 0
2018-12-13 12:38:16 GMT 39.580032 -9.361605 29,000 242 456 64
2018-12-13 12:38:08 GMT 39.588348 -9.341980 29,000 242 457 64
2018-12-13 12:38:05 GMT 39.591980 -9.333313 29,000 242 457 64
2018-12-13 12:38:01 GMT 39.595612 -9.324646 28,975 242 453 -64
2018-12-13 12:37:56 GMT 39.600452 -9.313110 29,000 242 457 64
2018-12-13 12:37:49 GMT 39.607498 -9.296285 29,000 242 456 64
2018-12-13 12:37:46 GMT 39.610928 -9.288147 29,000 242 456 64
2018-12-13 12:37:40 GMT 39.616512 -9.274658 28,975 242 456 64
2018-12-13 12:37:36 GMT 39.623520 -9.257832 28,975 242 456 64
2018-12-13 12:37:29 GMT 39.627731 -9.247742 29,000 242 453 -64
2018-12-13 12:37:23 GMT 39.633453 -9.233889 29,000 242 453 -64
2018-12-13 12:37:19 GMT 39.637024 -9.225291 29,000 242 451 0
2018-12-13 12:37:14 GMT 39.642151 -9.212932 29,000 242 448 0
2018-12-13 12:37:08 GMT 39.648056 -9.198781 29,000 242 447 0
2018-12-13 12:37:04 GMT 39.652218 -9.188904 29,000 242 447 64
2018-12-13 12:36:58 GMT 39.658504 -9.173767 29,000 242 448 0
2018-12-13 12:36:53 GMT 39.662247 -9.164807 29,000 242 448 0
2018-12-13 12:36:47 GMT 39.668564 -9.149641 29,000 242 448 0
2018-12-13 12:36:43 GMT 39.672703 -9.139709 29,000 242 448 128
2018-12-13 12:36:37 GMT 39.678772 -9.125101 29,000 242 448 0
2018-12-13 12:36:32 GMT 39.684853 -9.110413 29,000 242 448 0
2018-12-13 12:36:27 GMT 39.688202 -9.102352 29,000 242 449 0
2018-12-13 12:36:21 GMT 39.694302 -9.087708 29,000 242 448 0
2018-12-13 12:36:16 GMT 39.700012 -9.073931 29,000 242 448 0
2018-12-13 12:36:12 GMT 39.705505 -9.060676 29,000 242 448 64
2018-12-13 12:36:03 GMT 39.712189 -9.044614 29,000 242 448 0
2018-12-13 12:36:00 GMT 39.716320 -9.034668 29,000 242 448 0
2018-12-13 12:35:53 GMT 39.721985 -9.020910 29,000 242 448 0
2018-12-13 12:35:50 GMT 39.724934 -9.013855 29,000 242 448 0
2018-12-13 12:35:43 GMT 39.732430 -8.995850 29,000 242 448 0
2018-12-13 12:35:39 GMT 39.735352 -8.988727 29,000 242 449 0
2018-12-13 12:35:31 GMT 39.744781 -8.965978 29,000 242 449 64
2018-12-13 12:35:22 GMT 39.754448 -8.942688 29,000 242 450 0
2018-12-13 12:35:18 GMT 39.755814 -8.939348 29,000 242 450 0
2018-12-13 12:35:14 GMT 39.760529 -8.927944 29,000 242 450 0
2018-12-13 12:35:10 GMT 39.764877 -8.917435 29,000 242 450 0
2018-12-13 12:35:07 GMT 39.766846 -8.912659 29,000 242 450 0
2018-12-13 12:35:02 GMT 39.771767 -8.900757 29,000 242 450 0
2018-12-13 12:34:59 GMT 39.774929 -8.893127 29,000 242 450 0
2018-12-13 12:34:56 GMT 39.777676 -8.886475 29,000 242 451 0
2018-12-13 12:34:51 GMT 39.783005 -8.873609 29,000 242 451 0
2018-12-13 12:34:47 GMT 39.787128 -8.863586 29,000 242 451 0
2018-12-13 12:34:41 GMT 39.792847 -8.849726 29,000 242 451 64
2018-12-13 12:34:38 GMT 39.795788 -8.842590 29,000 242 451 64
2018-12-13 12:34:35 GMT 39.798752 -8.835456 29,000 242 451 64
2018-12-13 12:34:32 GMT 39.801327 -8.829224 29,000 242 451 0
2018-12-13 12:34:29 GMT 39.808773 -8.811035 29,000 242 451 64
2018-12-13 12:34:25 GMT 39.808773 -8.811035 29,000 242 451 64
2018-12-13 12:34:20 GMT 39.818390 -8.787630 29,000 243 451 64
2018-12-13 12:34:15 GMT 39.818390 -8.787630 29,000 242 450 0
2018-12-13 12:34:10 GMT 39.824661 -8.772344 29,000 243 450 64
2018-12-13 12:34:07 GMT 39.826263 -8.768523 29,000 243 450 0
2018-12-13 12:34:03 GMT 39.829956 -8.759460 29,000 243 450 64
2018-12-13 12:33:58 GMT 39.835236 -8.746550 29,000 243 449 64
2018-12-13 12:33:55 GMT 39.840729 -8.733235 29,000 243 450 0
2018-12-13 12:33:49 GMT 39.843842 -8.725593 29,000 243 450 64
2018-12-13 12:33:46 GMT 39.846760 -8.718384 29,000 243 450 64
2018-12-13 12:33:38 GMT 39.855560 -8.696933 29,000 243 450 0
2018-12-13 12:33:33 GMT 39.859653 -8.686890 29,000 243 450 0
2018-12-13 12:33:28 GMT 39.870270 -8.661072 29,000 242 452 64
2018-12-13 12:33:23 GMT 39.870270 -8.661072 29,000 242 452 64
2018-12-13 12:33:18 GMT 39.874008 -8.651972 29,000 242 452 64
2018-12-13 12:33:14 GMT 39.877346 -8.643799 29,000 242 453 64
2018-12-13 12:33:07 GMT 39.885258 -8.624573 29,000 242 454 0
2018-12-13 12:33:04 GMT 39.887833 -8.618297 29,000 242 455 0
2018-12-13 12:33:01 GMT 39.891216 -8.610046 29,000 242 456 0
2018-12-13 12:32:58 GMT 39.895386 -8.599907 29,000 242 456 0
2018-12-13 12:32:53 GMT 39.898758 -8.591675 29,000 242 456 64
2018-12-13 12:32:50 GMT 39.901550 -8.584900 29,000 242 457 64
2018-12-13 12:32:46 GMT 39.905731 -8.574710 29,000 243 458 0
2018-12-13 12:32:43 GMT 39.908722 -8.567383 29,000 243 458 0
2018-12-13 12:32:40 GMT 39.911728 -8.560081 29,000 243 459 64
2018-12-13 12:32:37 GMT 39.916309 -8.548828 29,000 243 460 64
2018-12-13 12:32:32 GMT 39.919476 -8.541016 29,000 243 460 64
2018-12-13 12:32:29 GMT 39.922688 -8.533193 29,000 243 461 0
2018-12-13 12:32:26 GMT 39.926643 -8.523393 29,000 243 461 0
2018-12-13 12:32:22 GMT 39.929260 -8.517029 29,000 243 460 0
2018-12-13 12:32:19 GMT 39.933022 -8.507725 29,000 243 460 0
2018-12-13 12:32:15 GMT 39.936188 -8.499922 29,000 243 459 64
2018-12-13 12:32:12 GMT 39.939972 -8.490601 29,000 243 459 0
2018-12-13 12:32:06 GMT 39.946148 -8.475515 29,000 243 459 64
2018-12-13 12:32:01 GMT 39.950897 -8.463780 29,000 243 459 64
2018-12-13 12:31:58 GMT 39.953888 -8.456482 29,000 243 459 64
2018-12-13 12:31:55 GMT 39.957275 -8.448174 29,000 243 460 0
2018-12-13 12:31:51 GMT 39.961281 -8.438374 29,000 243 460 0
2018-12-13 12:31:46 GMT 39.966446 -8.425640 29,000 243 460 64
2018-12-13 12:31:40 GMT 39.972244 -8.411438 29,000 243 461 64
2018-12-13 12:31:34 GMT 39.978241 -8.396729 29,000 243 461 64
2018-12-13 12:31:28 GMT 39.983047 -8.384949 29,000 243 462 64
2018-12-13 12:31:24 GMT 39.988632 -8.371155 29,000 243 462 128
2018-12-13 12:31:19 GMT 39.996426 -8.351981 29,000 243 463 64
2018-12-13 12:31:15 GMT 39.996426 -8.351981 29,000 243 463 64
2018-12-13 12:31:12 GMT 39.999638 -8.344054 29,000 243 463 64
2018-12-13 12:31:09 GMT 40.002228 -8.337646 29,000 243 463 64
2018-12-13 12:31:05 GMT 40.007645 -8.324328 29,000 243 462 64
2018-12-13 12:30:58 GMT 40.012814 -8.311532 29,000 243 462 64
2018-12-13 12:30:54 GMT 40.017654 -8.299734 29,000 243 463 64
2018-12-13 12:30:46 GMT 40.025848 -8.279541 29,000 243 463 64
2018-12-13 12:30:42 GMT 40.029663 -8.270146 29,000 243 463 64
2018-12-13 12:30:38 GMT 40.033669 -8.260283 29,000 243 464 128
2018-12-13 12:30:35 GMT 40.036461 -8.253354 29,000 243 464 64
2018-12-13 12:30:32 GMT 40.039490 -8.245972 29,000 243 464 64
2018-12-13 12:30:27 GMT 40.044094 -8.234565 29,000 243 464 64
2018-12-13 12:30:22 GMT 40.050846 -8.217773 29,000 243 463 0
2018-12-13 12:30:16 GMT 40.055054 -8.207397 29,000 243 463 0
2018-12-13 12:30:13 GMT 40.059177 -8.196987 29,000 243 462 0
2018-12-13 12:30:06 GMT 40.065720 -8.180725 29,000 243 461 0
2018-12-13 12:30:03 GMT 40.071625 -8.166016 29,000 243 457 0
2018-12-13 12:29:56 GMT 40.075607 -8.156189 29,000 243 457 0
2018-12-13 12:29:53 GMT 40.078720 -8.148438 29,000 243 457 0
2018-12-13 12:29:44 GMT 40.090897 -8.118164 29,000 243 457 0
2018-12-13 12:29:41 GMT 40.090897 -8.118164 29,000 243 457 64
2018-12-13 12:29:32 GMT 40.102055 -8.090369 29,000 243 456 64
2018-12-13 12:29:24 GMT 40.110245 -8.069895 29,000 243 455 0
2018-12-13 12:29:21 GMT 40.110245 -8.069895 29,000 243 455 0
2018-12-13 12:29:15 GMT 40.119652 -8.046549 29,000 243 455 0
2018-12-13 12:29:09 GMT 40.123932 -8.035812 29,000 243 456 0
2018-12-13 12:29:01 GMT 40.129425 -8.022204 29,000 243 456 0
2018-12-13 12:28:58 GMT 40.132370 -8.014893 29,000 243 456 0
2018-12-13 12:28:52 GMT 40.137665 -8.001730 29,000 243 457 128
2018-12-13 12:28:48 GMT 40.142784 -7.989058 29,000 243 457 64
2018-12-13 12:28:40 GMT 40.149261 -7.972900 29,000 243 458 64
2018-12-13 12:28:37 GMT 40.152981 -7.963590 29,000 243 458 64
2018-12-13 12:28:31 GMT 40.159637 -7.946923 29,000 243 458 128
2018-12-13 12:28:26 GMT 40.163361 -7.937622 29,000 243 456 64
2018-12-13 12:28:21 GMT 40.168251 -7.925387 29,000 243 457 64
2018-12-13 12:28:18 GMT 40.172115 -7.915587 29,000 243 456 0
2018-12-13 12:28:10 GMT 40.178925 -7.898499 29,000 243 455 0
2018-12-13 12:28:06 GMT 40.183006 -7.888246 29,000 243 453 0
2018-12-13 12:27:59 GMT 40.189198 -7.872703 29,000 243 453 64
2018-12-13 12:27:55 GMT 40.194031 -7.860596 29,000 243 453 64
2018-12-13 12:27:50 GMT 40.199066 -7.847961 29,000 243 453 64
2018-12-13 12:27:44 GMT 40.204514 -7.834351 29,000 243 453 64
2018-12-13 12:27:39 GMT 40.209183 -7.822693 29,000 243 455 64
2018-12-13 12:27:35 GMT 40.213440 -7.812012 29,000 243 454 64
2018-12-13 12:27:28 GMT 40.220032 -7.795349 28,975 243 455 64
2018-12-13 12:27:24 GMT 40.223099 -7.787537 28,975 243 455 0
2018-12-13 12:27:18 GMT 40.229095 -7.772453 29,000 243 454 0
2018-12-13 12:27:14 GMT 40.233704 -7.760717 29,000 243 452 0
2018-12-13 12:27:08 GMT 40.239304 -7.746582 29,000 243 453 -64
2018-12-13 12:27:03 GMT 40.243340 -7.736373 29,000 243 452 -64
2018-12-13 12:26:57 GMT 40.249111 -7.721828 29,000 243 452 0
2018-12-13 12:26:53 GMT 40.253174 -7.711670 29,000 243 453 0
2018-12-13 12:26:46 GMT 40.259541 -7.695611 29,000 243 454 0
2018-12-13 12:26:41 GMT 40.269268 -7.671204 29,000 243 457 0
2018-12-13 12:26:36 GMT 40.269268 -7.671204 29,000 243 457 -64
2018-12-13 12:26:32 GMT 40.273926 -7.659468 29,000 243 457 0
2018-12-13 12:26:26 GMT 40.279587 -7.645203 29,000 243 459 -64
2018-12-13 12:26:22 GMT 40.284302 -7.633362 29,000 243 460 -64
2018-12-13 12:26:17 GMT 40.288605 -7.622498 29,000 243 460 -64
2018-12-13 12:26:14 GMT 40.292732 -7.612090 29,000 243 461 64
2018-12-13 12:26:11 GMT 40.294315 -7.608157 29,000 243 461 0
2018-12-13 12:26:05 GMT 40.300179 -7.593301 29,000 243 461 0
2018-12-13 12:26:01 GMT 40.304882 -7.581378 29,000 243 462 0
2018-12-13 12:25:55 GMT 40.315495 -7.554599 29,000 243 462 0
2018-12-13 12:25:49 GMT 40.315495 -7.554599 29,000 243 462 0
2018-12-13 12:25:44 GMT 40.321152 -7.540161 29,000 243 461 0
2018-12-13 12:25:40 GMT 40.325089 -7.530273 29,000 243 461 0
2018-12-13 12:25:36 GMT 40.329437 -7.519409 29,000 243 462 0
2018-12-13 12:25:33 GMT 40.331406 -7.514404 29,000 243 462 64
2018-12-13 12:25:29 GMT 40.335510 -7.504037 29,000 243 464 0
2018-12-13 12:25:25 GMT 40.339890 -7.493050 29,000 243 463 64
2018-12-13 12:25:21 GMT 40.344219 -7.482126 29,000 243 464 0
2018-12-13 12:25:18 GMT 40.346375 -7.476624 29,000 243 464 64
2018-12-13 12:25:15 GMT 40.349712 -7.468144 29,000 243 465 0
2018-12-13 12:25:12 GMT 40.351665 -7.463150 29,000 243 465 0
2018-12-13 12:25:09 GMT 40.355392 -7.453613 29,000 243 462 128
2018-12-13 12:25:02 GMT 40.362232 -7.436184 29,000 243 460 128
2018-12-13 12:24:58 GMT 40.366142 -7.426258 29,000 243 461 128
2018-12-13 12:24:55 GMT 40.370007 -7.416333 29,000 243 460 128
2018-12-13 12:24:51 GMT 40.373337 -7.407898 29,000 243 460 64
2018-12-13 12:24:46 GMT 40.377594 -7.397034 29,000 243 460 64
2018-12-13 12:24:42 GMT 40.381645 -7.386620 29,000 243 459 64
2018-12-13 12:24:37 GMT 40.387619 -7.371338 29,000 243 457 64
2018-12-13 12:24:33 GMT 40.390320 -7.364441 29,000 243 455 64
2018-12-13 12:24:30 GMT 40.393936 -7.355097 29,000 243 455 64
2018-12-13 12:24:27 GMT 40.396042 -7.349670 29,000 243 455 64
2018-12-13 12:24:24 GMT 40.399521 -7.340881 29,000 243 454 64
2018-12-13 12:24:19 GMT 40.403732 -7.330078 29,000 243 453 64
2018-12-13 12:24:16 GMT 40.409866 -7.314392 29,000 243 453 0
2018-12-13 12:24:12 GMT 40.409866 -7.314392 29,000 243 453 0
2018-12-13 12:24:09 GMT 40.413666 -7.304626 29,000 243 453 64
2018-12-13 12:24:06 GMT 40.416367 -7.297791 29,000 243 453 64
2018-12-13 12:24:02 GMT 40.419434 -7.289978 29,000 243 453 64
2018-12-13 12:23:58 GMT 40.424240 -7.277818 29,000 243 453 0
2018-12-13 12:23:55 GMT 40.425980 -7.273376 29,000 243 453 64
2018-12-13 12:23:52 GMT 40.429222 -7.265084 29,000 243 455 64
2018-12-13 12:23:47 GMT 40.434994 -7.250415 29,000 243 454 128
2018-12-13 12:23:43 GMT 40.438812 -7.240552 29,000 243 455 128
2018-12-13 12:23:38 GMT 40.443970 -7.227295 29,000 244 455 128
2018-12-13 12:23:32 GMT 40.448727 -7.215021 29,000 244 454 64
2018-12-13 12:23:29 GMT 40.451427 -7.208155 29,000 244 454 64
2018-12-13 12:23:24 GMT 40.456146 -7.195862 29,000 244 453 0
2018-12-13 12:23:18 GMT 40.461823 -7.181213 29,000 244 452 0
2018-12-13 12:23:15 GMT 40.469055 -7.162720 29,000 243 451 64
2018-12-13 12:23:11 GMT 40.469055 -7.162720 29,000 244 449 64
2018-12-13 12:23:07 GMT 40.476006 -7.144734 29,000 244 449 64
2018-12-13 12:23:03 GMT 40.476006 -7.144734 29,000 244 449 64
2018-12-13 12:23:00 GMT 40.478287 -7.138929 29,000 244 449 64
2018-12-13 12:22:57 GMT 40.482059 -7.129191 29,000 243 450 0
2018-12-13 12:22:53 GMT 40.486622 -7.117580 29,000 243 451 64
2018-12-13 12:22:50 GMT 40.488327 -7.113159 29,000 243 450 0
2018-12-13 12:22:46 GMT 40.491928 -7.103972 29,000 243 451 64
2018-12-13 12:22:42 GMT 40.497189 -7.090302 29,000 243 451 0
2018-12-13 12:22:39 GMT 40.498901 -7.085938 29,000 244 452 0
2018-12-13 12:22:35 GMT 40.502541 -7.076631 29,000 244 452 0
2018-12-13 12:22:30 GMT 40.507477 -7.063959 29,025 244 451 128
2018-12-13 12:22:26 GMT 40.511246 -7.054159 29,000 244 452 128
2018-12-13 12:22:22 GMT 40.515808 -7.042424 29,000 244 452 128
2018-12-13 12:22:13 GMT 40.526962 -7.013611 29,000 244 452 0
2018-12-13 12:22:08 GMT 40.528839 -7.008667 29,000 244 452 64
2018-12-13 12:22:04 GMT 40.532227 -6.999878 29,000 244 451 0
2018-12-13 12:21:58 GMT 40.537857 -6.985229 29,000 244 451 64
2018-12-13 12:21:53 GMT 40.541611 -6.975464 29,000 244 450 0
2018-12-13 12:21:49 GMT 40.546143 -6.963806 29,000 244 449 0
2018-12-13 12:21:44 GMT 40.550629 -6.952087 29,000 244 449 64
2018-12-13 12:21:39 GMT 40.555161 -6.940430 29,000 244 449 0
2018-12-13 12:21:32 GMT 40.565479 -6.913709 29,000 244 448 128
2018-12-13 12:21:28 GMT 40.565479 -6.913709 29,000 243 448 192
2018-12-13 12:21:23 GMT 40.570370 -6.901162 29,000 243 447 64
2018-12-13 12:21:17 GMT 40.576263 -6.886169 28,975 254 430 -64
2018-12-13 12:21:13 GMT 40.579865 -6.877004 28,975 243 447 64
2018-12-13 12:21:07 GMT 40.585636 -6.862585 28,975 254 430 -64
2018-12-13 12:21:01 GMT 40.590992 -6.849102 29,000 243 448 64
2018-12-13 12:20:57 GMT 40.595367 -6.837429 29,000 254 430 -64
2018-12-13 12:20:52 GMT 40.599232 -6.825631 29,000 254 430 -64
2018-12-13 12:20:45 GMT 40.603516 -6.809713 29,000 252 432 -192
2018-12-13 12:20:40 GMT 40.606258 -6.796729 29,025 256 425 -128
2018-12-13 12:20:36 GMT 40.608074 -6.785681 29,025 261 419 64
2018-12-13 12:20:29 GMT 40.609940 -6.769638 29,025 263 415 64
2018-12-13 12:20:26 GMT 40.610687 -6.758179 29,000 267 409 64
2018-12-13 12:20:20 GMT 40.610962 -6.747314 29,000 271 405 64
2018-12-13 12:20:14 GMT 40.610687 -6.732605 29,000 274 399 -64
2018-12-13 12:20:09 GMT 40.609543 -6.709351 29,000 275 398 128
2018-12-13 12:20:05 GMT 40.609543 -6.709351 29,025 275 398 128
2018-12-13 12:19:58 GMT 40.608673 -6.692932 29,000 275 397 128
2018-12-13 12:19:54 GMT 40.608124 -6.682809 29,000 274 397 64
2018-12-13 12:19:48 GMT 40.607426 -6.668389 29,000 274 396 64
2018-12-13 12:19:43 GMT 40.606819 -6.655905 29,000 274 396 -64
2018-12-13 12:19:38 GMT 40.606258 -6.644356 29,000 274 395 0
2018-12-13 12:19:32 GMT 40.605560 -6.630432 29,025 275 397 0
2018-12-13 12:19:27 GMT 40.605003 -6.619450 29,000 274 397 0
2018-12-13 12:19:22 GMT 40.604351 -6.606903 29,025 275 397 0
2018-12-13 12:19:18 GMT 40.603745 -6.595355 29,025 275 399 128
2018-12-13 12:19:12 GMT 40.602997 -6.581299 29,000 275 399 128
2018-12-13 12:19:06 GMT 40.602264 -6.568726 29,000 275 401 64
2018-12-13 12:19:01 GMT 40.601532 -6.556152 29,000 275 402 64
2018-12-13 12:18:57 GMT 40.600891 -6.544434 29,000 275 402 0
2018-12-13 12:18:50 GMT 40.600021 -6.529375 29,000 275 401 0
2018-12-13 12:18:45 GMT 40.598251 -6.501347 29,000 275 397 0
2018-12-13 12:18:38 GMT 40.598251 -6.501347 29,000 275 396 0
2018-12-13 12:18:35 GMT 40.597595 -6.491272 29,000 276 396 64
2018-12-13 12:18:31 GMT 40.596855 -6.480248 29,000 276 396 0
2018-12-13 12:18:24 GMT 40.595833 -6.465829 29,000 276 398 0
2018-12-13 12:18:19 GMT 40.595078 -6.454773 29,000 276 398 128
2018-12-13 12:18:14 GMT 40.594070 -6.440308 29,000 276 398 64
2018-12-13 12:18:09 GMT 40.593384 -6.430664 29,000 276 397 64
2018-12-13 12:18:03 GMT 40.592293 -6.415766 29,000 276 396 64
2018-12-13 12:17:58 GMT 40.591370 -6.403809 29,000 276 396 0
2018-12-13 12:17:52 GMT 40.590271 -6.389465 29,000 276 397 0
2018-12-13 12:17:48 GMT 40.589596 -6.380310 29,000 276 397 0
2018-12-13 12:17:43 GMT 40.588486 -6.365417 29,000 276 400 -64
2018-12-13 12:17:38 GMT 40.587753 -6.354797 29,000 276 400 -64
2018-12-13 12:17:32 GMT 40.586655 -6.340271 29,000 277 406 64
2018-12-13 12:17:26 GMT 40.585732 -6.328125 29,000 277 403 -64
2018-12-13 12:17:20 GMT 40.583775 -6.303780 29,000 277 404 64
2018-12-13 12:17:16 GMT 40.583405 -6.299377 29,000 277 404 64
2018-12-13 12:17:11 GMT 40.582611 -6.290047 29,000 277 406 64
2018-12-13 12:17:05 GMT 40.581356 -6.275316 29,000 277 410 0
2018-12-13 12:17:00 GMT 40.580109 -6.260925 29,000 277 412 0
2018-12-13 12:16:56 GMT 40.579193 -6.250977 29,000 277 412 0
2018-12-13 12:16:52 GMT 40.578514 -6.243480 29,000 277 412 0
2018-12-13 12:16:49 GMT 40.577774 -6.235046 29,000 277 411 -64
2018-12-13 12:16:43 GMT 40.576511 -6.221633 29,000 277 411 -64
2018-12-13 12:16:38 GMT 40.575115 -6.206776 29,000 278 411 64
2018-12-13 12:16:31 GMT 40.573471 -6.190491 29,000 278 413 0
2018-12-13 12:16:24 GMT 40.570694 -6.164079 29,000 278 414 -128
2018-12-13 12:16:18 GMT 40.570221 -6.159607 29,000 278 415 0
2018-12-13 12:16:13 GMT 40.568924 -6.147100 29,000 278 414 64
2018-12-13 12:16:10 GMT 40.568115 -6.139587 29,000 278 414 64
2018-12-13 12:16:04 GMT 40.566559 -6.124695 29,000 278 412 128
2018-12-13 12:15:56 GMT 40.563339 -6.093355 28,975 278 416 0
2018-12-13 12:15:46 GMT 40.562027 -6.079834 29,000 278 415 -128
2018-12-13 12:15:36 GMT 40.559372 -6.052856 29,000 278 414 0
2018-12-13 12:15:31 GMT 40.556637 -6.024503 29,000 278 413 -64
2018-12-13 12:15:21 GMT 40.555893 -6.017029 29,000 278 414 0
2018-12-13 12:15:18 GMT 40.555023 -6.008057 29,025 278 415 -64
2018-12-13 12:15:10 GMT 40.553143 -5.988610 29,000 278 415 -64
2018-12-13 12:15:03 GMT 40.551498 -5.972107 29,000 278 411 64
2018-12-13 12:14:55 GMT 40.549187 -5.948722 29,000 278 411 64
2018-12-13 12:14:44 GMT 40.546783 -5.924500 29,000 278 409 128
2018-12-13 12:14:25 GMT 40.541885 -5.875183 29,000 278 412 192
2018-12-13 12:14:15 GMT 40.539734 -5.853394 29,000 278 411 0
2018-12-13 12:14:06 GMT 40.537502 -5.831118 29,000 278 407 0
2018-12-13 12:13:57 GMT 40.534882 -5.804810 29,000 278 412 192
2018-12-13 12:13:49 GMT 40.533127 -5.787485 29,000 278 411 192
2018-12-13 12:13:45 GMT 40.532333 -5.779620 29,000 278 411 0
2018-12-13 12:13:37 GMT 40.530167 -5.757385 29,000 278 412 192
2018-12-13 12:13:29 GMT 40.528015 -5.735535 29,000 278 412 128
2018-12-13 12:13:23 GMT 40.526825 -5.723572 29,000 278 415 64
2018-12-13 12:13:15 GMT 40.524563 -5.701093 28,975 278 415 0
2018-12-13 12:13:08 GMT 40.522697 -5.683115 28,975 278 414 0
2018-12-13 12:13:02 GMT 40.521584 -5.672191 28,975 278 408 0
2018-12-13 12:12:52 GMT 40.518997 -5.646973 28,975 278 408 -128
2018-12-13 12:12:43 GMT 40.516739 -5.624875 29,000 278 407 0
2018-12-13 12:12:33 GMT 40.513870 -5.596924 29,000 278 409 -192
2018-12-13 12:12:19 GMT 40.510876 -5.566760 29,025 278 413 -192
2018-12-13 12:12:10 GMT 40.508514 -5.543274 29,025 278 417 64
2018-12-13 12:12:01 GMT 40.506218 -5.520630 29,025 278 420 -128
2018-12-13 12:11:51 GMT 40.503613 -5.495162 29,025 278 425 128
2018-12-13 12:11:39 GMT 40.500504 -5.465027 29,000 278 424 192
2018-12-13 12:11:30 GMT 40.497437 -5.435486 28,875 278 423 1088
2018-12-13 12:11:21 GMT 40.495838 -5.419693 28,775 278 423 1856
2018-12-13 12:11:17 GMT 40.494415 -5.405945 28,525 278 425 1984
2018-12-13 12:11:12 GMT 40.493324 -5.395223 28,500 278 426 1792
2018-12-13 12:11:07 GMT 40.492218 -5.384521 28,375 278 429 1024
2018-12-13 12:11:01 GMT 40.490524 -5.368103 28,175 278 427 1920
2018-12-13 12:10:58 GMT 40.489880 -5.361453 28,100 278 428 1600
2018-12-13 12:10:51 GMT 40.487644 -5.339792 27,850 278 430 1728
2018-12-13 12:10:48 GMT 40.487137 -5.335144 27,800 278 430 1728
2018-12-13 12:10:38 GMT 40.484344 -5.308228 27,400 278 429 1024
2018-12-13 12:10:26 GMT 40.481266 -5.278806 27,350 278 429 1472
2018-12-13 12:10:16 GMT 40.478394 -5.251465 27,125 278 429 704
2018-12-13 12:10:04 GMT 40.475307 -5.222126 26,950 278 427 1024
2018-12-13 12:09:55 GMT 40.472839 -5.198531 26,800 278 426 1024
2018-12-13 12:09:45 GMT 40.469971 -5.171448 26,600 278 424 1280
2018-12-13 12:09:34 GMT 40.467163 -5.144411 26,300 278 424 2368
2018-12-13 12:09:24 GMT 40.464417 -5.117819 25,950 278 427 1280
2018-12-13 12:09:16 GMT 40.462143 -5.095825 25,850 278 423 448
2018-12-13 12:09:03 GMT 40.458847 -5.064514 25,750 278 418 384
2018-12-13 12:08:52 GMT 40.455963 -5.038635 25,700 279 411 128
2018-12-13 12:08:42 GMT 40.453217 -5.014099 25,675 278 407 64
2018-12-13 12:08:32 GMT 40.451248 -4.988708 25,625 275 403 640
2018-12-13 12:08:21 GMT 40.450310 -4.962075 25,525 272 398 448
2018-12-13 12:08:11 GMT 40.450356 -4.939041 25,425 269 394 768
2018-12-13 12:08:00 GMT 40.451519 -4.912449 25,275 265 389 960
2018-12-13 12:07:50 GMT 40.453476 -4.889103 25,175 263 385 384
2018-12-13 12:07:40 GMT 40.456314 -4.865320 25,100 260 379 384
2018-12-13 12:07:29 GMT 40.459991 -4.842099 25,025 257 373 832
2018-12-13 12:07:19 GMT 40.464569 -4.819031 24,900 254 369 768
2018-12-13 12:07:09 GMT 40.469604 -4.797791 24,750 252 366 448
2018-12-13 12:06:58 GMT 40.475647 -4.776306 24,675 249 359 576
2018-12-13 12:06:47 GMT 40.483109 -4.753174 24,500 246 354 1216
2018-12-13 12:06:36 GMT 40.490437 -4.732611 24,175 245 354 2688
2018-12-13 12:06:27 GMT 40.496910 -4.714508 23,800 245 361 1920
2018-12-13 12:06:16 GMT 40.504486 -4.693359 23,450 245 364 1728
2018-12-13 12:06:06 GMT 40.512039 -4.672186 23,075 246 365 2624
2018-12-13 12:05:55 GMT 40.519638 -4.650818 22,600 245 367 2368
2018-12-13 12:05:45 GMT 40.527027 -4.630176 22,225 246 369 1600
2018-12-13 12:05:34 GMT 40.534756 -4.608328 21,950 246 367 1216
2018-12-13 12:05:23 GMT 40.542389 -4.586667 21,800 245 361 960
2018-12-13 12:05:13 GMT 40.549896 -4.565735 21,500 246 358 2240
2018-12-13 12:05:02 GMT 40.557285 -4.544844 21,200 245 356 1280
2018-12-13 12:04:52 GMT 40.564774 -4.524292 20,925 245 353 1728
2018-12-13 12:04:41 GMT 40.571999 -4.504707 20,600 245 350 1664
2018-12-13 12:04:31 GMT 40.579102 -4.485168 20,275 245 348 1792
2018-12-13 12:04:21 GMT 40.586521 -4.465006 19,925 245 347 1920
2018-12-13 12:04:10 GMT 40.593613 -4.445679 19,600 245 345 1664
2018-12-13 12:03:59 GMT 40.601231 -4.424993 19,300 245 342 1536
2018-12-13 12:03:49 GMT 40.608124 -4.406391 19,050 244 337 1600
2018-12-13 12:03:39 GMT 40.615402 -4.386963 18,800 244 333 1088
2018-12-13 12:03:28 GMT 40.622459 -4.367814 18,525 246 329 1664
2018-12-13 12:03:18 GMT 40.627628 -4.348401 18,250 258 321 1984
2018-12-13 12:03:07 GMT 40.629547 -4.327271 17,875 269 317 1728
2018-12-13 12:03:01 GMT 40.629768 -4.316129 17,700 269 316 1792
2018-12-13 12:02:56 GMT 40.629955 -4.307702 17,575 269 315 1792
2018-12-13 12:02:46 GMT 40.630375 -4.287040 17,225 269 314 1600
2018-12-13 12:02:35 GMT 40.630749 -4.267315 16,950 269 311 1472
2018-12-13 12:02:24 GMT 40.631119 -4.246278 16,650 269 307 1664
2018-12-13 12:02:14 GMT 40.631516 -4.227417 16,375 269 303 1152
2018-12-13 12:02:04 GMT 40.631836 -4.209900 16,200 269 296 1472
2018-12-13 12:01:53 GMT 40.632202 -4.190552 15,800 269 295 2880
2018-12-13 12:01:43 GMT 40.632568 -4.172485 15,275 269 300 2880
2018-12-13 12:01:33 GMT 40.632889 -4.153768 14,750 269 305 2752
2018-12-13 12:01:22 GMT 40.633354 -4.133793 14,325 268 304 1216
2018-12-13 12:01:12 GMT 40.633724 -4.115628 14,200 269 293 64
2018-12-13 12:01:02 GMT 40.634052 -4.096714 13,950 268 281 2624
2018-12-13 12:00:52 GMT 40.634422 -4.079673 13,450 269 284 3712
2018-12-13 12:00:41 GMT 40.634583 -4.061768 12,925 270 290 2432
2018-12-13 12:00:31 GMT 40.634857 -4.043030 12,600 269 280 960
2018-12-13 12:00:20 GMT 40.635170 -4.025241 12,375 269 273 1536
2018-12-13 12:00:10 GMT 40.635498 -4.009033 11,950 269 274 3200
2018-12-13 12:00:00 GMT 40.636005 -3.990159 11,500 269 277 1792
2018-12-13 11:59:50 GMT 40.636101 -3.972806 11,225 269 274 1792
2018-12-13 11:59:39 GMT 40.636459 -3.955322 10,950 269 268 1856
2018-12-13 11:59:28 GMT 40.636703 -3.938224 10,600 270 267 1664
2018-12-13 11:59:18 GMT 40.636917 -3.921814 10,275 269 262 2816
2018-12-13 11:59:08 GMT 40.637173 -3.905328 9,750 269 269 2944
2018-12-13 11:58:57 GMT 40.637543 -3.886289 9,275 270 270 1600
2018-12-13 11:58:46 GMT 40.637871 -3.870059 8,925 269 270 2368
2018-12-13 11:58:36 GMT 40.638107 -3.853271 8,525 269 268 2880
2018-12-13 11:58:24 GMT 40.638702 -3.833801 8,000 269 269 1920
2018-12-13 11:58:15 GMT 40.638756 -3.819247 7,700 270 266 2816
2018-12-13 11:58:05 GMT 40.639034 -3.802830 7,225 269 267 2176
2018-12-13 11:57:55 GMT 40.639389 -3.785950 6,925 269 259 896
2018-12-13 11:57:44 GMT 40.639965 -3.770246 6,775 268 245 1280
2018-12-13 11:57:34 GMT 40.640148 -3.755264 6,550 269 234 768
2018-12-13 11:57:23 GMT 40.640755 -3.740221 6,325 268 222 1472
2018-12-13 11:57:13 GMT 40.640991 -3.726868 6,050 269 215 896
2018-12-13 11:57:03 GMT 40.641266 -3.713816 5,925 270 205 512
2018-12-13 11:56:52 GMT 40.641266 -3.700867 5,825 272 197 640
2018-12-13 11:56:42 GMT 40.640717 -3.689148 5,725 278 188 448
2018-12-13 11:56:32 GMT 40.637821 -3.678298 5,675 300 183 320
2018-12-13 11:56:22 GMT 40.632111 -3.669617 5,575 318 179 960
2018-12-13 11:56:11 GMT 40.625336 -3.661987 5,375 320 177 1152
2018-12-13 11:56:00 GMT 40.619156 -3.654764 5,200 320 176 832
2018-12-13 11:55:50 GMT 40.612427 -3.647400 5,000 320 175 1216
2018-12-13 11:55:39 GMT 40.605843 -3.639408 4,775 318 177 1344
2018-12-13 11:55:29 GMT 40.599789 -3.632043 4,550 317 178 704
2018-12-13 11:55:19 GMT 40.593613 -3.624451 4,400 315 178 768
2018-12-13 11:55:08 GMT 40.587639 -3.615875 4,300 312 174 704
2018-12-13 11:54:57 GMT 40.581913 -3.607011 4,150 310 174 1344
2018-12-13 11:54:48 GMT 40.577408 -3.599548 3,975 308 174 1024
2018-12-13 11:54:35 GMT 40.571205 -3.589221 3,750 309 172 1088
2018-12-13 11:54:27 GMT 40.566830 -3.582604 3,550 315 173 1472

Making use of Plane Finder data

You are free to use the raw flight data, aircraft information and images provided in this report for your own purposes provided the data is correctly attributed to Plane Finder. We ask that you please credit Plane Finder and link to planefinder.net in close proximity to the content.

Optionally one of the following logos (no smaller then 150x24px) can be used and must link to planefinder.net

Embedding the Plane Finder map

You are welcome to embed the Plane Finder playback map on your website to offer visitors a more interactive experience. We suggest using the following HTML code:

<iframe src="//planefinder.net/data/report/ES8594-9H-JAI-7700-squawk-2018-12-13/map" width="800" height="600" seamless="seamless"></iframe>

Where our data comes from

Plane Finder has a global network of data feeds and antenna radars that receive data broadcast directly from aircraft. The primary technologies used are ADS-B and MLAT. We also show feeds from the FAA and a FLARM glider feed.

Click here to find out more about the Plane Finder network.

How we collect our data